Archival Weather

NSFA McMurdo Sound

NSFA McMurdo Sound, Antarctica (NZCM)

Report from: Friday, September 23, 2022 6:55 PM UTC
Current time: Sunday, December 4, 2022 11:21 AM UTC

Current weather
Weather history
Weather forecast

Temperature-15.6°C (3.9°F)
Wind chill-22.4°C (-8.2°F)
Dew point-22.2°C (-8.0°F)
Winds 6 kts (3.1 m/s, 6.9 mph) South (170°)
Visibility6.2 mi. (10 km)
Clouds Few clouds 4,600 ft. (1,402 m)
Scattered clouds 5,500 ft. (1,676 m)
Ceiling: Overcast 7,500 ft. (2,286 m)
Altimeter28.61 in.Hg (969 mB)
Relative humidity57 %
Density altitude-2,291 ft. (-698 m)
Sea-level pressure107.0 kPa (1070 mB, 31.58 in.Hg)
Remarks Fully automated report
System requires maintenance
Automated weather observing station with precipitation discriminator
Flight conditions Visual Meteorological Conditions
Raw dataNZCM 231855Z AUTO 17006KT 9999 FEW046 SCT055 OVC075 M16/M22 A2861 RMK AO2 SLP695 T11561222 $
An error has occurred. This application may no longer respond until reloaded. Reload 🗙